sensor_id;sensor_type;location;lat;lon;timestamp;temperature;humidity
12977;DHT22;6553;48.412;9.514;2022-09-13T00:00:51;21.60;65.70
12977;DHT22;6553;48.412;9.514;2022-09-13T00:03:18;21.60;65.70
12977;DHT22;6553;48.412;9.514;2022-09-13T00:05:45;21.60;65.70
12977;DHT22;6553;48.412;9.514;2022-09-13T00:08:12;21.60;65.70
12977;DHT22;6553;48.412;9.514;2022-09-13T00:10:40;21.60;65.70
12977;DHT22;6553;48.412;9.514;2022-09-13T00:13:07;21.70;65.80
12977;DHT22;6553;48.412;9.514;2022-09-13T00:15:35;21.70;65.80
12977;DHT22;6553;48.412;9.514;2022-09-13T00:18:02;21.60;65.70
12977;DHT22;6553;48.412;9.514;2022-09-13T00:20:28;21.60;65.70
12977;DHT22;6553;48.412;9.514;2022-09-13T00:22:54;21.60;65.80
12977;DHT22;6553;48.412;9.514;2022-09-13T00:25:20;21.60;65.70
12977;DHT22;6553;48.412;9.514;2022-09-13T00:27:46;21.60;65.80
12977;DHT22;6553;48.412;9.514;2022-09-13T00:30:12;21.60;65.80
12977;DHT22;6553;48.412;9.514;2022-09-13T00:32:38;21.60;65.80
12977;DHT22;6553;48.412;9.514;2022-09-13T00:35:05;21.60;65.70
12977;DHT22;6553;48.412;9.514;2022-09-13T00:37:32;21.60;65.70
12977;DHT22;6553;48.412;9.514;2022-09-13T00:40:02;21.60;65.70
12977;DHT22;6553;48.412;9.514;2022-09-13T00:42:30;21.60;65.70
12977;DHT22;6553;48.412;9.514;2022-09-13T00:47:54;21.60;65.60
12977;DHT22;6553;48.412;9.514;2022-09-13T00:56:03;21.60;65.70
12977;DHT22;6553;48.412;9.514;2022-09-13T00:58:55;21.60;65.70
12977;DHT22;6553;48.412;9.514;2022-09-13T01:01:31;21.60;65.70
12977;DHT22;6553;48.412;9.514;2022-09-13T01:04:01;21.50;65.60
12977;DHT22;6553;48.412;9.514;2022-09-13T01:06:30;21.60;65.80
12977;DHT22;6553;48.412;9.514;2022-09-13T01:08:59;21.60;66.50
12977;DHT22;6553;48.412;9.514;2022-09-13T01:11:37;21.60;65.70
12977;DHT22;6553;48.412;9.514;2022-09-13T01:14:10;21.60;65.70
12977;DHT22;6553;48.412;9.514;2022-09-13T01:16:36;21.50;65.60
12977;DHT22;6553;48.412;9.514;2022-09-13T01:19:02;21.50;65.60
12977;DHT22;6553;48.412;9.514;2022-09-13T01:30:57;21.50;65.60
12977;DHT22;6553;48.412;9.514;2022-09-13T01:33:55;21.60;65.80
12977;DHT22;6553;48.412;9.514;2022-09-13T01:36:34;21.60;65.70
12977;DHT22;6553;48.412;9.514;2022-09-13T01:42:35;21.50;65.60
12977;DHT22;6553;48.412;9.514;2022-09-13T01:48:17;21.50;65.50
12977;DHT22;6553;48.412;9.514;2022-09-13T01:51:00;21.50;65.60
12977;DHT22;6553;48.412;9.514;2022-09-13T01:53:45;21.50;65.70
12977;DHT22;6553;48.412;9.514;2022-09-13T01:56:27;21.50;65.60
12977;DHT22;6553;48.412;9.514;2022-09-13T01:59:28;21.50;65.60
12977;DHT22;6553;48.412;9.514;2022-09-13T02:02:05;21.50;65.60
12977;DHT22;6553;48.412;9.514;2022-09-13T02:04:45;21.50;65.60
12977;DHT22;6553;48.412;9.514;2022-09-13T02:07:20;21.50;65.50
12977;DHT22;6553;48.412;9.514;2022-09-13T02:09:57;21.50;65.60
12977;DHT22;6553;48.412;9.514;2022-09-13T02:12:28;21.50;65.50
12977;DHT22;6553;48.412;9.514;2022-09-13T02:15:09;21.50;65.60
12977;DHT22;6553;48.412;9.514;2022-09-13T02:17:48;21.50;65.60
12977;DHT22;6553;48.412;9.514;2022-09-13T02:20:26;21.50;66.30
12977;DHT22;6553;48.412;9.514;2022-09-13T02:22:58;21.50;65.50
12977;DHT22;6553;48.412;9.514;2022-09-13T02:25:35;21.50;65.50
12977;DHT22;6553;48.412;9.514;2022-09-13T02:28:07;21.50;65.50
12977;DHT22;6553;48.412;9.514;2022-09-13T02:30:38;21.50;65.60
12977;DHT22;6553;48.412;9.514;2022-09-13T02:33:23;21.50;65.60
12977;DHT22;6553;48.412;9.514;2022-09-13T02:36:27;21.50;65.50
12977;DHT22;6553;48.412;9.514;2022-09-13T02:39:00;21.50;65.50
12977;DHT22;6553;48.412;9.514;2022-09-13T02:44:30;21.50;65.50
12977;DHT22;6553;48.412;9.514;2022-09-13T02:50:36;21.50;65.50
12977;DHT22;6553;48.412;9.514;2022-09-13T02:56:20;21.50;65.50
12977;DHT22;6553;48.412;9.514;2022-09-13T03:01:34;21.40;65.40
12977;DHT22;6553;48.412;9.514;2022-09-13T03:04:03;21.50;65.50
12977;DHT22;6553;48.412;9.514;2022-09-13T03:06:30;21.50;65.50
12977;DHT22;6553;48.412;9.514;2022-09-13T03:08:59;21.40;65.40
12977;DHT22;6553;48.412;9.514;2022-09-13T03:14:46;21.40;65.40
12977;DHT22;6553;48.412;9.514;2022-09-13T03:20:13;21.50;65.50
12977;DHT22;6553;48.412;9.514;2022-09-13T03:23:12;21.40;65.40
12977;DHT22;6553;48.412;9.514;2022-09-13T03:31:37;21.40;66.20
12977;DHT22;6553;48.412;9.514;2022-09-13T03:42:59;21.40;65.40
12977;DHT22;6553;48.412;9.514;2022-09-13T03:45:34;21.40;65.40
12977;DHT22;6553;48.412;9.514;2022-09-13T03:48:05;21.40;65.40
12977;DHT22;6553;48.412;9.514;2022-09-13T03:50:32;21.40;65.40
12977;DHT22;6553;48.412;9.514;2022-09-13T03:53:03;21.40;65.40
12977;DHT22;6553;48.412;9.514;2022-09-13T03:55:35;21.40;65.40
12977;DHT22;6553;48.412;9.514;2022-09-13T03:58:05;21.40;65.40
12977;DHT22;6553;48.412;9.514;2022-09-13T04:00:31;21.40;65.40
12977;DHT22;6553;48.412;9.514;2022-09-13T04:02:56;21.40;65.40
12977;DHT22;6553;48.412;9.514;2022-09-13T04:05:22;21.40;65.40
12977;DHT22;6553;48.412;9.514;2022-09-13T04:07:48;21.40;65.40
12977;DHT22;6553;48.412;9.514;2022-09-13T04:10:14;21.40;65.30
12977;DHT22;6553;48.412;9.514;2022-09-13T04:12:40;21.40;65.40
12977;DHT22;6553;48.412;9.514;2022-09-13T04:15:06;21.40;65.40
12977;DHT22;6553;48.412;9.514;2022-09-13T04:17:33;21.40;66.10
12977;DHT22;6553;48.412;9.514;2022-09-13T04:19:59;21.40;65.30
12977;DHT22;6553;48.412;9.514;2022-09-13T04:22:24;21.40;65.40
12977;DHT22;6553;48.412;9.514;2022-09-13T04:24:50;21.40;65.30
12977;DHT22;6553;48.412;9.514;2022-09-13T04:27:17;21.40;65.30
12977;DHT22;6553;48.412;9.514;2022-09-13T04:29:43;21.40;65.40
12977;DHT22;6553;48.412;9.514;2022-09-13T04:32:09;21.40;65.40
12977;DHT22;6553;48.412;9.514;2022-09-13T04:34:35;21.40;65.40
12977;DHT22;6553;48.412;9.514;2022-09-13T04:37:01;21.40;65.40
12977;DHT22;6553;48.412;9.514;2022-09-13T04:39:27;21.40;65.40
12977;DHT22;6553;48.412;9.514;2022-09-13T04:41:53;21.40;65.40
12977;DHT22;6553;48.412;9.514;2022-09-13T04:44:19;21.40;65.40
12977;DHT22;6553;48.412;9.514;2022-09-13T04:46:47;21.40;65.40
12977;DHT22;6553;48.412;9.514;2022-09-13T04:49:14;21.40;65.40
12977;DHT22;6553;48.412;9.514;2022-09-13T04:51:41;21.40;65.40
12977;DHT22;6553;48.412;9.514;2022-09-13T04:54:08;21.40;65.30
12977;DHT22;6553;48.412;9.514;2022-09-13T04:56:35;21.40;65.40
12977;DHT22;6553;48.412;9.514;2022-09-13T04:59:01;21.40;65.40
12977;DHT22;6553;48.412;9.514;2022-09-13T05:01:27;21.40;65.40
12977;DHT22;6553;48.412;9.514;2022-09-13T05:03:53;21.40;65.40
12977;DHT22;6553;48.412;9.514;2022-09-13T05:06:20;21.30;65.30
12977;DHT22;6553;48.412;9.514;2022-09-13T05:08:52;21.30;65.30
12977;DHT22;6553;48.412;9.514;2022-09-13T05:11:24;21.30;65.30
12977;DHT22;6553;48.412;9.514;2022-09-13T05:13:53;21.30;65.30
12977;DHT22;6553;48.412;9.514;2022-09-13T05:16:22;21.40;65.40
12977;DHT22;6553;48.412;9.514;2022-09-13T05:18:49;21.40;65.40
12977;DHT22;6553;48.412;9.514;2022-09-13T05:21:16;21.40;65.40
12977;DHT22;6553;48.412;9.514;2022-09-13T05:23:43;21.40;66.20
12977;DHT22;6553;48.412;9.514;2022-09-13T05:26:10;21.40;65.40
12977;DHT22;6553;48.412;9.514;2022-09-13T05:28:36;21.40;65.40
12977;DHT22;6553;48.412;9.514;2022-09-13T05:33:35;21.30;65.30
12977;DHT22;6553;48.412;9.514;2022-09-13T05:36:03;21.40;65.40
12977;DHT22;6553;48.412;9.514;2022-09-13T05:38:31;21.30;65.30
12977;DHT22;6553;48.412;9.514;2022-09-13T05:40:59;21.40;65.40
12977;DHT22;6553;48.412;9.514;2022-09-13T05:43:29;21.40;65.50
12977;DHT22;6553;48.412;9.514;2022-09-13T05:46:10;21.30;65.30
12977;DHT22;6553;48.412;9.514;2022-09-13T05:48:37;21.30;65.30
12977;DHT22;6553;48.412;9.514;2022-09-13T05:54:53;21.30;65.40
12977;DHT22;6553;48.412;9.514;2022-09-13T05:57:18;21.40;65.60
12977;DHT22;6553;48.412;9.514;2022-09-13T05:59:44;21.40;65.50
12977;DHT22;6553;48.412;9.514;2022-09-13T06:02:12;21.40;65.40
12977;DHT22;6553;48.412;9.514;2022-09-13T06:04:38;21.40;65.50
12977;DHT22;6553;48.412;9.514;2022-09-13T06:07:03;21.30;65.30
12977;DHT22;6553;48.412;9.514;2022-09-13T06:09:29;21.40;65.50
12977;DHT22;6553;48.412;9.514;2022-09-13T06:11:55;21.30;65.40
12977;DHT22;6553;48.412;9.514;2022-09-13T06:14:20;21.30;65.40
12977;DHT22;6553;48.412;9.514;2022-09-13T06:16:46;21.40;65.50
12977;DHT22;6553;48.412;9.514;2022-09-13T06:19:12;21.40;65.50
12977;DHT22;6553;48.412;9.514;2022-09-13T06:21:38;21.40;65.50
12977;DHT22;6553;48.412;9.514;2022-09-13T06:24:04;21.40;65.60
12977;DHT22;6553;48.412;9.514;2022-09-13T06:26:30;21.40;65.60
12977;DHT22;6553;48.412;9.514;2022-09-13T06:28:57;21.40;65.60
12977;DHT22;6553;48.412;9.514;2022-09-13T06:31:25;21.40;65.60
12977;DHT22;6553;48.412;9.514;2022-09-13T06:33:58;21.30;65.50
12977;DHT22;6553;48.412;9.514;2022-09-13T06:36:27;21.40;65.60
12977;DHT22;6553;48.412;9.514;2022-09-13T06:38:53;21.40;65.60
12977;DHT22;6553;48.412;9.514;2022-09-13T06:41:21;21.40;65.70
12977;DHT22;6553;48.412;9.514;2022-09-13T06:43:56;21.40;65.70
12977;DHT22;6553;48.412;9.514;2022-09-13T06:46:23;21.40;65.70
12977;DHT22;6553;48.412;9.514;2022-09-13T06:48:51;21.40;65.70
12977;DHT22;6553;48.412;9.514;2022-09-13T06:51:22;21.40;65.80
12977;DHT22;6553;48.412;9.514;2022-09-13T06:53:50;21.40;65.80
12977;DHT22;6553;48.412;9.514;2022-09-13T06:56:22;21.40;65.80
12977;DHT22;6553;48.412;9.514;2022-09-13T06:58:56;21.40;65.80
12977;DHT22;6553;48.412;9.514;2022-09-13T07:01:35;21.40;66.10
12977;DHT22;6553;48.412;9.514;2022-09-13T07:04:08;21.40;65.80
12977;DHT22;6553;48.412;9.514;2022-09-13T07:06:38;21.40;65.80
12977;DHT22;6553;48.412;9.514;2022-09-13T07:09:08;21.40;65.80
12977;DHT22;6553;48.412;9.514;2022-09-13T07:11:38;21.50;65.90
12977;DHT22;6553;48.412;9.514;2022-09-13T07:14:05;21.50;66.00
12977;DHT22;6553;48.412;9.514;2022-09-13T07:16:35;21.40;65.90
12977;DHT22;6553;48.412;9.514;2022-09-13T07:19:07;21.50;66.10
12977;DHT22;6553;48.412;9.514;2022-09-13T07:21:51;21.50;66.00
12977;DHT22;6553;48.412;9.514;2022-09-13T07:24:18;21.50;66.00
12977;DHT22;6553;48.412;9.514;2022-09-13T07:26:46;21.50;66.20
12977;DHT22;6553;48.412;9.514;2022-09-13T07:29:18;21.50;66.10
12977;DHT22;6553;48.412;9.514;2022-09-13T07:31:49;21.50;66.20
12977;DHT22;6553;48.412;9.514;2022-09-13T07:34:18;21.50;66.20
12977;DHT22;6553;48.412;9.514;2022-09-13T07:36:46;21.50;66.30
12977;DHT22;6553;48.412;9.514;2022-09-13T07:39:13;21.60;66.40
12977;DHT22;6553;48.412;9.514;2022-09-13T07:41:40;21.60;66.20
12977;DHT22;6553;48.412;9.514;2022-09-13T07:44:06;21.60;66.30
12977;DHT22;6553;48.412;9.514;2022-09-13T07:46:35;21.60;66.20
12977;DHT22;6553;48.412;9.514;2022-09-13T07:49:05;21.70;66.20
12977;DHT22;6553;48.412;9.514;2022-09-13T07:51:33;21.70;66.10
12977;DHT22;6553;48.412;9.514;2022-09-13T07:54:03;21.70;66.40
12977;DHT22;6553;48.412;9.514;2022-09-13T07:56:35;21.80;66.30
12977;DHT22;6553;48.412;9.514;2022-09-13T07:59:04;21.80;66.20
12977;DHT22;6553;48.412;9.514;2022-09-13T08:01:40;21.80;66.10
12977;DHT22;6553;48.412;9.514;2022-09-13T08:04:16;21.90;66.10
12977;DHT22;6553;48.412;9.514;2022-09-13T08:06:46;21.90;66.20
12977;DHT22;6553;48.412;9.514;2022-09-13T08:09:12;21.90;66.10
12977;DHT22;6553;48.412;9.514;2022-09-13T08:11:49;21.90;66.40
12977;DHT22;6553;48.412;9.514;2022-09-13T08:14:19;21.90;66.20
12977;DHT22;6553;48.412;9.514;2022-09-13T08:16:47;21.90;66.30
12977;DHT22;6553;48.412;9.514;2022-09-13T08:19:15;21.90;66.30
12977;DHT22;6553;48.412;9.514;2022-09-13T08:21:43;21.90;66.20
12977;DHT22;6553;48.412;9.514;2022-09-13T08:24:18;21.90;66.30
12977;DHT22;6553;48.412;9.514;2022-09-13T08:26:46;22.00;66.40
12977;DHT22;6553;48.412;9.514;2022-09-13T08:29:13;21.90;66.30
12977;DHT22;6553;48.412;9.514;2022-09-13T08:31:40;21.90;66.30
12977;DHT22;6553;48.412;9.514;2022-09-13T08:34:10;22.00;66.40
12977;DHT22;6553;48.412;9.514;2022-09-13T08:36:39;22.00;66.50
12977;DHT22;6553;48.412;9.514;2022-09-13T08:39:06;22.00;66.50
12977;DHT22;6553;48.412;9.514;2022-09-13T08:41:40;22.00;66.60
12977;DHT22;6553;48.412;9.514;2022-09-13T08:49:52;22.00;66.50
12977;DHT22;6553;48.412;9.514;2022-09-13T08:52:32;22.00;66.80
12977;DHT22;6553;48.412;9.514;2022-09-13T08:55:07;22.00;66.60
12977;DHT22;6553;48.412;9.514;2022-09-13T08:57:51;22.00;66.70
12977;DHT22;6553;48.412;9.514;2022-09-13T09:00:39;22.00;66.60
12977;DHT22;6553;48.412;9.514;2022-09-13T09:03:40;22.00;66.70
12977;DHT22;6553;48.412;9.514;2022-09-13T09:06:13;22.00;66.70
12977;DHT22;6553;48.412;9.514;2022-09-13T09:08:46;21.90;66.60
12977;DHT22;6553;48.412;9.514;2022-09-13T09:11:33;22.00;66.70
12977;DHT22;6553;48.412;9.514;2022-09-13T09:14:21;21.90;66.70
12977;DHT22;6553;48.412;9.514;2022-09-13T09:17:01;22.00;66.90
12977;DHT22;6553;48.412;9.514;2022-09-13T09:19:40;21.90;66.80
12977;DHT22;6553;48.412;9.514;2022-09-13T09:22:17;22.00;66.90
12977;DHT22;6553;48.412;9.514;2022-09-13T09:24:56;22.00;67.00
12977;DHT22;6553;48.412;9.514;2022-09-13T09:27:22;22.00;67.00
12977;DHT22;6553;48.412;9.514;2022-09-13T09:29:50;22.00;67.00
12977;DHT22;6553;48.412;9.514;2022-09-13T09:41:05;22.00;67.40
12977;DHT22;6553;48.412;9.514;2022-09-13T09:43:45;22.00;67.10
12977;DHT22;6553;48.412;9.514;2022-09-13T09:46:20;22.00;67.40
12977;DHT22;6553;48.412;9.514;2022-09-13T09:48:54;22.00;67.30
12977;DHT22;6553;48.412;9.514;2022-09-13T09:51:27;22.00;67.50
12977;DHT22;6553;48.412;9.514;2022-09-13T09:53:59;22.00;67.60
12977;DHT22;6553;48.412;9.514;2022-09-13T09:56:32;22.00;67.70
12977;DHT22;6553;48.412;9.514;2022-09-13T09:58:58;22.00;67.80
12977;DHT22;6553;48.412;9.514;2022-09-13T10:01:30;22.00;67.90
12977;DHT22;6553;48.412;9.514;2022-09-13T10:06:34;22.00;67.50
12977;DHT22;6553;48.412;9.514;2022-09-13T10:11:41;22.00;67.70
12977;DHT22;6553;48.412;9.514;2022-09-13T10:14:36;22.00;67.30
12977;DHT22;6553;48.412;9.514;2022-09-13T10:17:28;22.00;67.00
12977;DHT22;6553;48.412;9.514;2022-09-13T10:19:58;22.00;67.20
12977;DHT22;6553;48.412;9.514;2022-09-13T10:22:27;22.00;67.30
12977;DHT22;6553;48.412;9.514;2022-09-13T10:24:54;22.00;67.30
12977;DHT22;6553;48.412;9.514;2022-09-13T10:27:35;22.00;67.60
12977;DHT22;6553;48.412;9.514;2022-09-13T10:30:28;22.00;67.60
12977;DHT22;6553;48.412;9.514;2022-09-13T10:32:57;22.00;67.40
12977;DHT22;6553;48.412;9.514;2022-09-13T10:35:24;22.00;67.00
12977;DHT22;6553;48.412;9.514;2022-09-13T10:37:50;22.00;67.00
12977;DHT22;6553;48.412;9.514;2022-09-13T10:40:24;22.00;67.00
12977;DHT22;6553;48.412;9.514;2022-09-13T10:42:56;22.10;67.00
12977;DHT22;6553;48.412;9.514;2022-09-13T10:45:28;22.10;67.00
12977;DHT22;6553;48.412;9.514;2022-09-13T10:48:11;22.10;66.80
12977;DHT22;6553;48.412;9.514;2022-09-13T10:56:36;22.10;67.10
12977;DHT22;6553;48.412;9.514;2022-09-13T10:59:35;22.10;67.20
12977;DHT22;6553;48.412;9.514;2022-09-13T11:05:44;22.00;67.00
12977;DHT22;6553;48.412;9.514;2022-09-13T11:20:36;22.10;66.50
12977;DHT22;6553;48.412;9.514;2022-09-13T11:26:41;22.10;66.90
12977;DHT22;6553;48.412;9.514;2022-09-13T11:32:14;22.10;67.50
12977;DHT22;6553;48.412;9.514;2022-09-13T11:35:19;22.10;66.70
12977;DHT22;6553;48.412;9.514;2022-09-13T11:47:35;22.10;67.10
12977;DHT22;6553;48.412;9.514;2022-09-13T11:50:12;22.10;66.80
12977;DHT22;6553;48.412;9.514;2022-09-13T11:55:57;22.10;67.00
12977;DHT22;6553;48.412;9.514;2022-09-13T11:58:41;22.10;66.90
12977;DHT22;6553;48.412;9.514;2022-09-13T12:01:19;22.10;67.10
12977;DHT22;6553;48.412;9.514;2022-09-13T12:04:10;22.10;67.00
12977;DHT22;6553;48.412;9.514;2022-09-13T12:06:53;22.10;66.90
12977;DHT22;6553;48.412;9.514;2022-09-13T12:09:34;22.10;66.90
12977;DHT22;6553;48.412;9.514;2022-09-13T12:12:12;22.10;66.90
12977;DHT22;6553;48.412;9.514;2022-09-13T12:17:30;22.10;66.80
12977;DHT22;6553;48.412;9.514;2022-09-13T12:20:17;22.10;66.80
12977;DHT22;6553;48.412;9.514;2022-09-13T12:22:56;22.20;66.80
12977;DHT22;6553;48.412;9.514;2022-09-13T12:25:33;22.10;66.50
12977;DHT22;6553;48.412;9.514;2022-09-13T12:28:21;22.20;66.70
12977;DHT22;6553;48.412;9.514;2022-09-13T12:30:59;22.20;66.70
12977;DHT22;6553;48.412;9.514;2022-09-13T12:33:29;22.20;66.70
12977;DHT22;6553;48.412;9.514;2022-09-13T13:11:06;22.30;66.80
12977;DHT22;6553;48.412;9.514;2022-09-13T13:13:36;22.20;66.70
12977;DHT22;6553;48.412;9.514;2022-09-13T13:16:20;22.30;67.00
12977;DHT22;6553;48.412;9.514;2022-09-13T13:18:49;22.30;67.00
12977;DHT22;6553;48.412;9.514;2022-09-13T13:21:43;22.20;66.90
12977;DHT22;6553;48.412;9.514;2022-09-13T13:26:58;22.30;67.00
12977;DHT22;6553;48.412;9.514;2022-09-13T13:29:27;22.30;67.00
12977;DHT22;6553;48.412;9.514;2022-09-13T13:34:44;22.20;67.20
12977;DHT22;6553;48.412;9.514;2022-09-13T13:39:44;22.30;67.00
12977;DHT22;6553;48.412;9.514;2022-09-13T13:42:30;22.30;67.10
12977;DHT22;6553;48.412;9.514;2022-09-13T13:50:14;22.30;67.30
12977;DHT22;6553;48.412;9.514;2022-09-13T13:55:41;22.30;67.40
12977;DHT22;6553;48.412;9.514;2022-09-13T14:00:52;22.30;67.20
12977;DHT22;6553;48.412;9.514;2022-09-13T14:09:36;22.30;67.40
12977;DHT22;6553;48.412;9.514;2022-09-13T14:12:30;22.30;67.40
12977;DHT22;6553;48.412;9.514;2022-09-13T14:21:00;22.30;67.40
12977;DHT22;6553;48.412;9.514;2022-09-13T14:23:42;22.30;67.50
12977;DHT22;6553;48.412;9.514;2022-09-13T14:26:09;22.30;68.30
12977;DHT22;6553;48.412;9.514;2022-09-13T14:28:37;22.30;67.40
12977;DHT22;6553;48.412;9.514;2022-09-13T14:31:04;22.30;67.40
12977;DHT22;6553;48.412;9.514;2022-09-13T14:33:33;22.30;67.40
12977;DHT22;6553;48.412;9.514;2022-09-13T14:36:05;22.30;67.40
12977;DHT22;6553;48.412;9.514;2022-09-13T14:38:47;22.30;67.40
12977;DHT22;6553;48.412;9.514;2022-09-13T14:41:21;22.30;67.40
12977;DHT22;6553;48.412;9.514;2022-09-13T14:44:17;22.30;67.40
12977;DHT22;6553;48.412;9.514;2022-09-13T14:46:54;22.30;67.40
12977;DHT22;6553;48.412;9.514;2022-09-13T14:49:25;22.30;67.40
12977;DHT22;6553;48.412;9.514;2022-09-13T14:52:26;22.30;68.20
12977;DHT22;6553;48.412;9.514;2022-09-13T14:54:56;22.30;67.40
12977;DHT22;6553;48.412;9.514;2022-09-13T14:57:33;22.30;67.40
12977;DHT22;6553;48.412;9.514;2022-09-13T15:00:22;22.30;67.40
12977;DHT22;6553;48.412;9.514;2022-09-13T15:02:53;22.30;67.50
12977;DHT22;6553;48.412;9.514;2022-09-13T15:05:25;22.30;67.50
12977;DHT22;6553;48.412;9.514;2022-09-13T15:07:53;22.30;67.60
12977;DHT22;6553;48.412;9.514;2022-09-13T15:10:33;22.30;67.70
12977;DHT22;6553;48.412;9.514;2022-09-13T15:13:09;22.30;67.40
12977;DHT22;6553;48.412;9.514;2022-09-13T15:15:43;22.30;67.40
12977;DHT22;6553;48.412;9.514;2022-09-13T15:23:37;22.30;67.40
12977;DHT22;6553;48.412;9.514;2022-09-13T15:26:20;22.30;67.40
12977;DHT22;6553;48.412;9.514;2022-09-13T15:31:23;22.30;67.70
12977;DHT22;6553;48.412;9.514;2022-09-13T15:37:29;22.30;67.40
12977;DHT22;6553;48.412;9.514;2022-09-13T15:39:49;22.30;67.40
12977;DHT22;6553;48.412;9.514;2022-09-13T15:42:26;22.30;67.40
12977;DHT22;6553;48.412;9.514;2022-09-13T15:44:52;22.30;67.50
12977;DHT22;6553;48.412;9.514;2022-09-13T15:47:18;22.30;67.50
12977;DHT22;6553;48.412;9.514;2022-09-13T15:49:51;22.30;67.50
12977;DHT22;6553;48.412;9.514;2022-09-13T15:52:18;22.30;67.70
12977;DHT22;6553;48.412;9.514;2022-09-13T15:54:47;22.30;67.60
12977;DHT22;6553;48.412;9.514;2022-09-13T15:57:18;22.40;67.90
12977;DHT22;6553;48.412;9.514;2022-09-13T15:59:47;22.40;67.80
12977;DHT22;6553;48.412;9.514;2022-09-13T16:02:19;22.30;67.80
12977;DHT22;6553;48.412;9.514;2022-09-13T16:04:46;22.30;67.80
12977;DHT22;6553;48.412;9.514;2022-09-13T16:07:14;22.30;67.90
12977;DHT22;6553;48.412;9.514;2022-09-13T16:09:40;22.40;68.00
12977;DHT22;6553;48.412;9.514;2022-09-13T16:12:07;22.30;68.70
12977;DHT22;6553;48.412;9.514;2022-09-13T16:14:32;22.40;68.10
12977;DHT22;6553;48.412;9.514;2022-09-13T16:17:20;22.30;68.00
12977;DHT22;6553;48.412;9.514;2022-09-13T16:19:48;22.30;68.10
12977;DHT22;6553;48.412;9.514;2022-09-13T16:22:14;22.40;68.10
12977;DHT22;6553;48.412;9.514;2022-09-13T16:24:40;22.30;68.00
12977;DHT22;6553;48.412;9.514;2022-09-13T16:27:06;22.30;68.20
12977;DHT22;6553;48.412;9.514;2022-09-13T16:29:31;22.40;68.20
12977;DHT22;6553;48.412;9.514;2022-09-13T16:31:57;22.30;68.20
12977;DHT22;6553;48.412;9.514;2022-09-13T16:34:26;22.30;68.10
12977;DHT22;6553;48.412;9.514;2022-09-13T16:36:52;22.30;68.10
12977;DHT22;6553;48.412;9.514;2022-09-13T16:39:18;22.40;68.30
12977;DHT22;6553;48.412;9.514;2022-09-13T16:41:44;22.30;68.30
12977;DHT22;6553;48.412;9.514;2022-09-13T16:44:10;22.30;68.30
12977;DHT22;6553;48.412;9.514;2022-09-13T16:46:36;22.30;68.20
12977;DHT22;6553;48.412;9.514;2022-09-13T16:49:02;22.30;68.30
12977;DHT22;6553;48.412;9.514;2022-09-13T16:51:29;22.30;68.30
12977;DHT22;6553;48.412;9.514;2022-09-13T16:53:55;22.40;68.40
12977;DHT22;6553;48.412;9.514;2022-09-13T16:56:23;22.30;68.30
12977;DHT22;6553;48.412;9.514;2022-09-13T16:58:51;22.30;68.30
12977;DHT22;6553;48.412;9.514;2022-09-13T17:01:24;22.30;68.40
12977;DHT22;6553;48.412;9.514;2022-09-13T17:03:52;22.30;68.40
12977;DHT22;6553;48.412;9.514;2022-09-13T17:06:19;22.30;68.30
12977;DHT22;6553;48.412;9.514;2022-09-13T17:08:52;22.40;68.50
12977;DHT22;6553;48.412;9.514;2022-09-13T17:11:21;22.30;68.30
12977;DHT22;6553;48.412;9.514;2022-09-13T17:13:48;22.40;68.40
12977;DHT22;6553;48.412;9.514;2022-09-13T17:16:31;22.30;68.40
12977;DHT22;6553;48.412;9.514;2022-09-13T17:19:05;22.30;68.30
12977;DHT22;6553;48.412;9.514;2022-09-13T17:21:36;22.30;68.30
12977;DHT22;6553;48.412;9.514;2022-09-13T17:24:02;22.30;68.20
12977;DHT22;6553;48.412;9.514;2022-09-13T17:26:29;22.30;68.20
12977;DHT22;6553;48.412;9.514;2022-09-13T17:28:55;22.30;68.30
12977;DHT22;6553;48.412;9.514;2022-09-13T17:31:21;22.30;68.20
12977;DHT22;6553;48.412;9.514;2022-09-13T17:33:47;22.30;68.20
12977;DHT22;6553;48.412;9.514;2022-09-13T17:36:14;22.40;68.30
12977;DHT22;6553;48.412;9.514;2022-09-13T17:38:41;22.40;68.40
12977;DHT22;6553;48.412;9.514;2022-09-13T17:41:10;22.40;68.50
12977;DHT22;6553;48.412;9.514;2022-09-13T17:43:39;22.30;68.40
12977;DHT22;6553;48.412;9.514;2022-09-13T17:46:20;22.30;68.60
12977;DHT22;6553;48.412;9.514;2022-09-13T17:48:52;22.30;68.60
12977;DHT22;6553;48.412;9.514;2022-09-13T17:51:24;22.30;68.60
12977;DHT22;6553;48.412;9.514;2022-09-13T17:53:59;22.30;68.50
12977;DHT22;6553;48.412;9.514;2022-09-13T17:56:27;22.30;68.50
12977;DHT22;6553;48.412;9.514;2022-09-13T18:01:40;22.30;68.60
12977;DHT22;6553;48.412;9.514;2022-09-13T18:04:08;22.30;68.60
12977;DHT22;6553;48.412;9.514;2022-09-13T18:06:36;22.30;68.60
12977;DHT22;6553;48.412;9.514;2022-09-13T18:09:05;22.30;68.60
12977;DHT22;6553;48.412;9.514;2022-09-13T18:11:31;22.30;68.50
12977;DHT22;6553;48.412;9.514;2022-09-13T18:13:57;22.30;68.50
12977;DHT22;6553;48.412;9.514;2022-09-13T18:16:24;22.40;68.60
12977;DHT22;6553;48.412;9.514;2022-09-13T18:18:52;22.30;68.50
12977;DHT22;6553;48.412;9.514;2022-09-13T18:21:20;22.30;68.50
12977;DHT22;6553;48.412;9.514;2022-09-13T18:23:50;22.30;68.60
12977;DHT22;6553;48.412;9.514;2022-09-13T18:26:21;22.30;68.50
12977;DHT22;6553;48.412;9.514;2022-09-13T18:28:53;22.30;68.60
12977;DHT22;6553;48.412;9.514;2022-09-13T18:31:21;22.30;68.60
12977;DHT22;6553;48.412;9.514;2022-09-13T18:33:55;22.30;68.50
12977;DHT22;6553;48.412;9.514;2022-09-13T18:36:24;22.30;68.50
12977;DHT22;6553;48.412;9.514;2022-09-13T18:38:50;22.30;68.40
12977;DHT22;6553;48.412;9.514;2022-09-13T18:41:37;22.30;68.50
12977;DHT22;6553;48.412;9.514;2022-09-13T18:44:05;22.30;68.50
12977;DHT22;6553;48.412;9.514;2022-09-13T18:46:33;22.30;68.50
12977;DHT22;6553;48.412;9.514;2022-09-13T18:48:59;22.30;68.50
12977;DHT22;6553;48.412;9.514;2022-09-13T18:51:35;22.30;68.70
12977;DHT22;6553;48.412;9.514;2022-09-13T18:54:04;22.30;68.60
12977;DHT22;6553;48.412;9.514;2022-09-13T18:56:31;22.30;68.70
12977;DHT22;6553;48.412;9.514;2022-09-13T18:59:02;22.30;68.60
12977;DHT22;6553;48.412;9.514;2022-09-13T19:01:31;22.30;68.70
12977;DHT22;6553;48.412;9.514;2022-09-13T19:04:07;22.30;68.70
12977;DHT22;6553;48.412;9.514;2022-09-13T19:06:42;22.30;68.80
12977;DHT22;6553;48.412;9.514;2022-09-13T19:09:10;22.30;68.80
12977;DHT22;6553;48.412;9.514;2022-09-13T19:11:39;22.30;68.80
12977;DHT22;6553;48.412;9.514;2022-09-13T19:14:07;22.30;68.80
12977;DHT22;6553;48.412;9.514;2022-09-13T19:16:34;22.30;68.80
12977;DHT22;6553;48.412;9.514;2022-09-13T19:19:01;22.30;68.80
12977;DHT22;6553;48.412;9.514;2022-09-13T19:21:29;22.30;68.80
12977;DHT22;6553;48.412;9.514;2022-09-13T19:23:57;22.30;68.90
12977;DHT22;6553;48.412;9.514;2022-09-13T19:26:28;22.30;69.00
12977;DHT22;6553;48.412;9.514;2022-09-13T19:29:25;22.30;69.00
12977;DHT22;6553;48.412;9.514;2022-09-13T19:31:51;22.30;69.10
12977;DHT22;6553;48.412;9.514;2022-09-13T19:34:20;22.30;69.20
12977;DHT22;6553;48.412;9.514;2022-09-13T19:36:47;22.30;69.20
12977;DHT22;6553;48.412;9.514;2022-09-13T19:39:16;22.30;69.30
12977;DHT22;6553;48.412;9.514;2022-09-13T19:41:42;22.30;69.20